createdAt,value
2023-02-07T00:01:40.857Z,5.71
2023-02-07T00:06:44.107Z,7.59
2023-02-07T00:11:47.316Z,7.56
2023-02-07T00:16:50.654Z,4.95
2023-02-07T00:21:53.821Z,3.19
2023-02-07T00:26:57.038Z,2.76
2023-02-07T00:32:00.476Z,6.14
2023-02-07T00:37:05.174Z,7.30
2023-02-07T00:42:08.813Z,4.91
2023-02-07T00:47:11.924Z,2.97
2023-02-07T00:52:15.024Z,2.74
2023-02-07T00:57:18.153Z,5.51
2023-02-07T01:02:21.337Z,6.31
2023-02-07T01:07:24.449Z,4.02
2023-02-07T01:12:27.559Z,2.43
2023-02-07T01:17:30.570Z,2.02
2023-02-07T01:22:33.873Z,4.32
2023-02-07T01:27:37.803Z,5.88
2023-02-07T01:32:40.904Z,4.84
2023-02-07T01:37:44.009Z,3.09
2023-02-07T01:42:47.214Z,4.59
2023-02-07T01:47:54.129Z,5.36
2023-02-07T01:53:01.979Z,3.46
2023-02-07T01:58:07.323Z,2.21
2023-02-07T02:03:10.492Z,4.33
2023-02-07T02:08:13.602Z,5.03
2023-02-07T02:13:39.253Z,3.13
2023-02-07T02:18:58.742Z,4.57
2023-02-07T02:24:23.164Z,6.92
2023-02-07T02:29:47.476Z,6.56
2023-02-07T02:35:27.403Z,3.90
2023-02-07T02:40:57.645Z,2.35
2023-02-07T02:46:12.694Z,4.19
2023-02-07T02:51:16.247Z,5.63
2023-02-07T02:56:59.124Z,3.57
2023-02-07T03:02:36.499Z,4.16
2023-02-07T03:07:57.441Z,5.48
2023-02-07T03:13:31.814Z,3.46
2023-02-07T03:19:05.503Z,2.06
2023-02-07T03:24:23.354Z,1.38
2023-02-07T03:29:30.854Z,3.92
2023-02-07T03:34:40.400Z,5.87
2023-02-07T03:39:43.920Z,4.06
2023-02-07T03:44:49.634Z,2.96
2023-02-07T03:49:52.835Z,5.42
2023-02-07T03:54:55.998Z,6.61
2023-02-07T03:59:59.141Z,4.52
2023-02-07T04:05:02.420Z,2.65
2023-02-07T04:10:07.031Z,1.64
2023-02-07T04:15:10.995Z,2.14
2023-02-07T04:20:14.325Z,4.74
2023-02-07T04:25:17.506Z,6.59
2023-02-07T04:30:20.827Z,4.78
2023-02-07T04:35:24.436Z,3.00
2023-02-07T04:40:27.460Z,5.11
2023-02-07T04:45:30.448Z,6.88
2023-02-07T04:50:33.545Z,5.66
2023-02-07T04:55:37.715Z,3.42
2023-02-07T05:00:41.808Z,2.12
2023-02-07T05:05:45.836Z,2.90
2023-02-07T05:10:56.692Z,5.53
2023-02-07T05:16:04.400Z,5.50
2023-02-07T05:21:07.550Z,3.31
2023-02-07T05:26:10.783Z,2.02
2023-02-07T05:31:13.927Z,1.91
2023-02-07T05:36:17.302Z,4.52
2023-02-07T05:41:20.399Z,6.00
2023-02-07T05:46:23.577Z,5.67
2023-02-07T05:51:27.021Z,3.37
2023-02-07T05:56:30.122Z,2.32
2023-02-07T06:01:33.319Z,4.41
2023-02-07T06:06:36.942Z,5.54
2023-02-07T06:11:40.040Z,3.71
2023-02-07T06:16:43.152Z,3.02
2023-02-07T06:21:47.081Z,4.82
2023-02-07T06:26:50.313Z,4.90
2023-02-07T06:31:53.415Z,2.99
2023-02-07T06:36:56.491Z,4.46
2023-02-07T06:41:59.510Z,6.09
2023-02-07T06:47:02.601Z,5.83
2023-02-07T06:52:05.712Z,3.49
2023-02-07T06:57:09.019Z,2.15
2023-02-07T07:02:13.058Z,2.37
2023-02-07T07:07:16.166Z,4.53
2023-02-07T07:12:19.265Z,6.43
2023-02-07T07:17:22.393Z,6.56
2023-02-07T07:22:26.708Z,4.11
2023-02-07T07:27:29.828Z,2.61
2023-02-07T07:32:34.439Z,2.71
2023-02-07T07:37:37.774Z,5.87
2023-02-07T07:42:40.980Z,6.52
2023-02-07T07:47:44.076Z,4.02
2023-02-07T07:52:47.224Z,2.76
2023-02-07T07:57:50.497Z,3.91
2023-02-07T08:02:53.629Z,6.70
2023-02-07T08:07:56.708Z,5.70
2023-02-07T08:12:59.728Z,3.78
2023-02-07T08:18:03.127Z,3.63
2023-02-07T08:23:06.338Z,6.73
2023-02-07T08:28:10.606Z,6.09
2023-02-07T08:33:15.586Z,4.18
2023-02-07T08:38:18.927Z,3.16
2023-02-07T08:43:22.036Z,3.71
2023-02-07T08:48:25.185Z,6.92
2023-02-07T08:53:28.249Z,7.44
2023-02-07T08:58:33.667Z,5.11
2023-02-07T09:03:38.735Z,3.58
2023-02-07T09:08:41.801Z,3.09
2023-02-07T09:13:46.585Z,5.72
2023-02-07T09:18:50.376Z,5.55
2023-02-07T09:23:54.564Z,4.03
2023-02-07T09:28:57.887Z,4.57
2023-02-07T09:34:03.033Z,7.28
2023-02-07T09:39:07.499Z,5.78
2023-02-07T09:44:37.370Z,4.42
2023-02-07T09:49:53.061Z,4.75
2023-02-07T09:55:00.950Z,7.73
2023-02-07T10:00:29.738Z,6.46
2023-02-07T10:05:45.821Z,4.79
2023-02-07T10:11:03.899Z,3.94
2023-02-07T10:16:38.030Z,3.50
2023-02-07T10:22:26.712Z,3.30
2023-02-07T10:27:42.783Z,3.52
2023-02-07T10:32:47.865Z,6.70
2023-02-07T10:37:57.028Z,8.27
2023-02-07T10:43:30.328Z,6.44
2023-02-07T10:48:35.636Z,5.04
2023-02-07T10:53:55.004Z,4.22
2023-02-07T10:59:00.613Z,3.80
2023-02-07T11:04:24.186Z,3.99
2023-02-07T11:09:27.856Z,6.78
2023-02-07T11:14:31.093Z,7.77
2023-02-07T11:19:34.368Z,5.98
2023-02-07T11:24:38.629Z,4.76
2023-02-07T11:30:04.545Z,4.06
2023-02-07T11:35:09.817Z,4.99
2023-02-07T11:40:38.801Z,7.02
2023-02-07T11:45:47.624Z,5.55
2023-02-07T11:50:56.203Z,4.52
2023-02-07T11:55:59.808Z,3.93
2023-02-07T12:01:06.886Z,3.44
2023-02-07T12:06:19.343Z,4.87
2023-02-07T12:11:31.766Z,7.52
2023-02-07T12:16:44.899Z,7.83
2023-02-07T12:22:20.316Z,5.74
2023-02-07T12:27:34.941Z,4.43
2023-02-07T12:33:01.510Z,3.79
2023-02-07T12:38:25.740Z,3.39
2023-02-07T12:43:36.147Z,5.07
2023-02-07T12:49:40.826Z,5.87
2023-02-07T12:55:18.434Z,4.58
2023-02-07T13:00:38.340Z,3.92
2023-02-07T13:06:15.655Z,4.08
2023-02-07T13:11:54.694Z,6.39
2023-02-07T13:17:19.200Z,5.89
2023-02-07T13:22:47.517Z,4.59
2023-02-07T13:27:56.194Z,3.86
2023-02-07T13:33:32.734Z,3.50
2023-02-07T13:38:48.951Z,3.19
2023-02-07T13:44:16.338Z,2.98
2023-02-07T13:49:44.750Z,4.53
2023-02-07T13:55:17.625Z,7.16
2023-02-07T14:00:25.362Z,7.34
2023-02-07T14:05:36.801Z,5.42
2023-02-07T14:10:53.359Z,4.22
2023-02-07T14:16:13.176Z,3.46
2023-02-07T14:21:19.773Z,3.66
2023-02-07T14:26:38.522Z,5.58
2023-02-07T14:38:08.801Z,3.61
2023-02-07T14:43:11.929Z,5.57
2023-02-07T14:48:42.455Z,5.46
2023-02-07T14:53:58.964Z,3.87
2023-02-07T14:59:02.805Z,3.04
2023-02-07T15:04:10.895Z,4.56
2023-02-07T15:09:28.472Z,6.46
2023-02-07T15:14:34.760Z,7.60
2023-02-07T15:19:41.917Z,7.44
2023-02-07T15:24:51.457Z,5.36
2023-02-07T15:30:06.712Z,3.88
2023-02-07T15:35:24.141Z,2.96
2023-02-07T15:40:27.655Z,2.34
2023-02-07T15:45:33.719Z,2.08
2023-02-07T15:50:38.514Z,4.20
2023-02-07T15:55:48.730Z,6.22
2023-02-07T16:00:53.444Z,6.39
2023-02-07T16:06:22.064Z,4.16
2023-02-07T16:11:28.004Z,2.81
2023-02-07T16:16:53.935Z,2.10
2023-02-07T16:22:08.600Z,1.59
2023-02-07T16:27:24.578Z,1.28
2023-02-07T16:32:33.474Z,1.04
2023-02-07T16:37:36.549Z,0.90
2023-02-07T16:42:41.502Z,2.58
2023-02-07T16:47:45.014Z,5.09
2023-02-07T16:52:51.123Z,6.31
2023-02-07T16:57:56.249Z,6.12
2023-02-07T17:02:59.486Z,4.22
2023-02-07T17:08:02.663Z,3.07
2023-02-07T17:13:05.888Z,2.40
2023-02-07T17:18:12.722Z,1.93
2023-02-07T17:23:15.791Z,1.58
2023-02-07T17:28:19.125Z,1.26
2023-02-07T17:33:22.814Z,0.97
2023-02-07T17:38:26.006Z,0.75
2023-02-07T17:43:29.319Z,1.50
2023-02-07T17:48:33.656Z,3.96
2023-02-07T17:53:36.773Z,5.51
2023-02-07T17:58:39.865Z,6.57
2023-02-07T18:03:43.078Z,6.35
2023-02-07T18:08:47.332Z,4.43
2023-02-07T18:13:50.658Z,3.16
2023-02-07T18:18:57.234Z,2.31
2023-02-07T18:24:00.326Z,1.71
2023-02-07T18:29:03.923Z,1.28
2023-02-07T18:34:07.666Z,0.93
2023-02-07T18:39:13.932Z,0.63
2023-02-07T18:44:17.055Z,1.35
2023-02-07T18:49:20.552Z,3.95
2023-02-07T18:54:24.698Z,5.76
2023-02-07T18:59:28.608Z,7.19
2023-02-07T19:04:32.022Z,7.04
2023-02-07T19:09:35.460Z,4.69
2023-02-07T19:14:38.653Z,3.26
2023-02-07T19:19:43.384Z,2.37
2023-02-07T19:24:46.596Z,1.69
2023-02-07T19:29:49.908Z,1.21
2023-02-07T19:34:53.331Z,0.85
2023-02-07T19:39:56.733Z,0.54
2023-02-07T19:45:00.015Z,0.30
2023-02-07T19:50:03.461Z,0.98
2023-02-07T19:55:07.588Z,3.63
2023-02-07T20:00:12.043Z,5.47
2023-02-07T20:05:15.144Z,6.52
2023-02-07T20:10:20.137Z,6.31
2023-02-07T20:15:23.293Z,4.16
2023-02-07T20:20:26.610Z,2.80
2023-02-07T20:25:33.815Z,1.91
2023-02-07T20:30:44.100Z,1.29
2023-02-07T20:35:47.194Z,0.83
2023-02-07T20:40:50.296Z,0.54
2023-02-07T20:46:14.441Z,0.33
2023-02-07T20:51:17.705Z,0.14
2023-02-07T20:56:20.918Z,-0.00
2023-02-07T21:01:28.585Z,0.96
2023-02-07T21:06:34.287Z,3.84
2023-02-07T21:11:45.300Z,5.57
2023-02-07T21:16:49.526Z,6.78
2023-02-07T21:21:55.200Z,6.27
2023-02-07T21:26:59.011Z,4.39
2023-02-07T21:32:03.124Z,3.24
2023-02-07T21:37:06.349Z,2.45
2023-02-07T21:42:09.652Z,1.83
2023-02-07T21:47:12.768Z,1.41
2023-02-07T21:52:16.686Z,1.09
2023-02-07T21:57:19.791Z,0.85
2023-02-07T22:02:22.928Z,0.68
2023-02-07T22:07:26.148Z,0.57
2023-02-07T22:12:29.855Z,1.30
2023-02-07T22:17:33.068Z,4.01
2023-02-07T22:22:36.257Z,5.90
2023-02-07T22:27:39.561Z,7.10
2023-02-07T22:32:42.872Z,6.87
2023-02-07T22:37:46.176Z,4.89
2023-02-07T22:42:49.458Z,3.52
2023-02-07T22:47:52.603Z,2.58
2023-02-07T22:52:56.639Z,1.94
2023-02-07T22:58:00.138Z,1.47
2023-02-07T23:03:03.346Z,1.15
2023-02-07T23:08:06.972Z,0.91
2023-02-07T23:13:10.931Z,0.73
2023-02-07T23:18:15.836Z,0.57
2023-02-07T23:23:19.250Z,1.19
2023-02-07T23:28:22.602Z,3.89
2023-02-07T23:33:25.806Z,5.74
2023-02-07T23:38:29.081Z,6.88
2023-02-07T23:43:32.290Z,6.31
2023-02-07T23:48:38.536Z,4.22
2023-02-07T23:53:43.500Z,2.92
2023-02-07T23:58:48.655Z,2.07
